Silverdale, WA

9:10 AM PDT on October 25, 2014 (GMT -0700)
Island Lake | Change Station
CLOSE
Current Station
Personal Weather Station
Location: Silverdale, WA
Elevation: 368 ft
Nearby Weather Stations
Active Advisory: Wind Advisory

Elev 368 ft 47.68 °N, 122.67 °W | Updated 9 seconds ago

Rain
Rain
48.9 °F
Feels Like 49 °F
N
0.0
Wind Variable Wind from SE
Gusts 2.6 mph

Today
High -- | Low -- °F
--% Chance of Precip.
Yesterday
High -- | Low -- °F
Precip. -- in
7:44 AM 6:04 PM
Waxing Crescent, 3% visible
Pressure 29.55 in
Visibility 6.0 miles
Clouds Few 3600 ft
Few 4600 ft
Mostly Cloudy 7000 ft
Windchill 49 °F
Dew Point 48 °F
Humidity 98%
Rainfall 0.09 in
Snow Depth Not available.
UV 0 out of 12
Pollen .40 out of 12
Air Quality Not available.
Flu Activity Sporadic
METAR KPWT 251555Z AUTO 00000KT 6SM FEW036 FEW046 BKN070 09/09 A2955 RMK AO1 P0004

More Conditions Fewer Conditions

Pressure 29.55 in
Visibility 6.0 miles
Clouds Few 3600 ft
Few 4600 ft
Mostly Cloudy 7000 ft
Windchill 49 °F
Dew Point 48 °F
Humidity 98%
Rainfall 0.09 in
Snow Depth Not available.
UV 0 out of 12
Pollen .40 out of 12
Air Quality Not available.
Flu Activity Sporadic
METAR KPWT 251555Z AUTO 00000KT 6SM FEW036 FEW046 BKN070 09/09 A2955 RMK AO1 P0004

More Conditions Fewer Conditions

10-Day Weather Forecast

Almanac

Astronomy

Oct. 25, 2014 Rise Set
Actual Time 7:44 AM PDT 6:04 PM PDT
Civil Twilight 7:12 AM PDT 6:36 PM PDT
Nautical Twilight 6:36 AM PDT 7:12 PM PDT
Astronomical Twilight 6:01 AM PDT 7:47 PM PDT
Moon 9:34 AM PDT 7:25 PM PDT
Length of Visible Light 11h 23m
Length of Day
10h 19m
Tomorrow will be 3m 12s shorter.
Waxing Crescent, 3% of the Moon is Illuminated
Today
Waxing Crescent
Oct 30
First Quarter
Nov 6
Full
Nov 14
Last Quarter
Nov 22
New

Today's Extremes

State Highs State Lows

Community

WunderPhotos

Upload Photos

1,764,887 photos uploaded!

Nearby

Air Quality

  Air Quality AQ Index Pollutant
Saturday Good
PM2.5
Sunday Good
PM2.5
Monday Good
PM2.5
Tuesday Good
PM2.5
Wednesday Good
PM2.5

Snow Depth

Station Depth Elevation
Dungeness 0 in 4100 ft
Waterhole 1 in 5000 ft
Alpine Meadows 0 in 3500 ft
Mount Gardner 0 in 3000 ft
Burnt Mountain 0 in 4200 ft

Earthquake Activity

City Distance Mag. Time & Date
Birch Bay, Washington 78 miles 2.8 3:02 AM PDT
2014-10-24
Minimum magnitude displayed is 2.5.

Coastal Water Temperatures

Place Temperature
Port Townsend, WA 52.0 °F
Seattle, WA 55.0 °F
Friday Harbor, WA 51.1 °F
Tacoma, WA 54.0 °F

Nearby Weather Stations